Morganton, Georgia
Current Conditions -  °F | °C
As of 11:15 AM on Wednesday 26 Nov 2014 (Local Time) from KRHP Reporting Station
Clear Clear  
Wind Chill: 46°   Ceiling: Unl
Heat Index: 48°   Visibility: 10mi
Dew Point: 33°   Wind: 6mph
Humidity: 55%   Direction: 290°WNW
Pressure: 30.04"   Gusts: NA
Location:  34.87°N, 84.25°W
Report Text: KRHP 261615Z AUTO 29005KT 10SM CLR 09/00 A3004 RMK AO2 T00900004
Loading
Personal Weather Stations






























Interactive Weather Map New forecast layout! Learn more

10-Day Weather Forecast

Advertisements
Track Severe Weather on mobile